Terminal Aerodrome Forecast
Issued by NWS Green Bay, WI

Current Version | Previous Version | Text Only | Print | Product List | Glossary On
Versions: 1 2 3 4 5 6 7 8 9 10 11 12 13 14 15 16 17 18 19 20 21 22 23 24 25 26 27 28 29 30 31 32
000
FTUS43 KGRB 271415 AAA
TAFGRB
TAF AMD
KGRB 271415Z 2714/2812 34011G15KT 6SM -RA BR SCT006 OVC020
      TEMPO 2714/2716 3SM RA BR BKN006
     FM271600 30012G20KT 6SM -RA BR OVC012
      TEMPO 2716/2720 3SM -RASN OVC009
     FM272000 26013G23KT P6SM OVC014
     FM280100 25009G16KT P6SM BKN023
     FM280600 24006KT P6SM SCT030=

USA.gov is the U.S. government's official web portal to all federal, state and local government web resources and services.